Time;durP1;ratioP1;P1;durP2;ratioP2;P2;SDS_P1;SDS_P2;PMS_P1;PMS_P2;Temp;Humidity;BMP_temperature;BMP_pressure;BME280_temperature;BME280_humidity;BME280_pressure;Samples;Min_cycle;Max_cycle;Signal;HPM_P1;HPM_P2
2024/02/01 00:00:42;;;;;;;4.77;2.87;;;3.60;99.90;;;;;;4209109;28;20456;-75
2024/02/01 00:02:43;;;;;;;4.70;3.00;;;3.60;99.90;;;;;;4210180;28;20547;-76
2024/02/01 00:04:45;;;;;;;4.33;2.73;;;3.70;99.90;;;;;;4191447;28;20472;-75
2024/02/01 00:06:50;;;;;;;4.80;3.10;;;3.70;99.90;;;;;;4207741;28;20218;-75
2024/02/01 00:08:52;;;;;;;6.37;2.77;;;3.70;99.90;;;;;;4209453;28;20466;-75
2024/02/01 00:10:56;;;;;;;5.03;2.90;;;3.80;99.90;;;;;;4210715;28;20513;-75
2024/02/01 00:12:58;;;;;;;5.07;2.97;;;3.80;99.90;;;;;;4211351;28;20479;-75
2024/02/01 00:15:00;;;;;;;5.17;2.60;;;3.80;99.90;;;;;;4214247;28;20491;-76
2024/02/01 00:17:02;;;;;;;5.17;2.70;;;3.80;99.90;;;;;;4212397;28;20465;-76
2024/02/01 00:19:04;;;;;;;4.60;2.70;;;3.90;99.90;;;;;;4195782;28;20461;-75
2024/02/01 00:21:06;;;;;;;6.07;3.30;;;3.80;99.90;;;;;;4212462;28;20961;-75
2024/02/01 00:23:08;;;;;;;5.03;2.90;;;3.80;99.90;;;;;;4197007;28;21263;-74
2024/02/01 00:25:11;;;;;;;5.67;3.00;;;3.80;99.90;;;;;;4212733;28;20448;-75
2024/02/01 00:27:14;;;;;;;7.13;3.37;;;3.80;99.90;;;;;;4213148;28;20480;-75
2024/02/01 00:29:18;;;;;;;5.63;2.90;;;3.80;99.90;;;;;;4214717;28;20467;-75
2024/02/01 00:31:18;;;;;;;4.93;3.10;;;3.80;99.90;;;;;;4213206;28;20446;-75
2024/02/01 00:33:20;;;;;;;5.60;3.03;;;3.80;99.90;;;;;;4212500;28;20496;-75
2024/02/01 00:35:22;;;;;;;5.43;3.23;;;3.80;99.90;;;;;;4195821;28;20663;-75
2024/02/01 00:37:23;;;;;;;7.27;3.20;;;3.80;99.90;;;;;;4205806;28;20451;-74
2024/02/01 00:39:25;;;;;;;4.70;3.13;;;3.80;99.90;;;;;;4194033;28;21001;-74
2024/02/01 00:41:29;;;;;;;7.40;3.10;;;3.80;99.90;;;;;;4212493;28;20217;-75
2024/02/01 00:43:32;;;;;;;4.80;3.40;;;3.80;99.90;;;;;;4215865;28;20515;-75
2024/02/01 00:45:34;;;;;;;6.03;3.10;;;3.80;99.90;;;;;;4210016;28;20878;-74
2024/02/01 00:47:35;;;;;;;6.50;3.23;;;3.80;99.90;;;;;;4213830;28;20446;-74
2024/02/01 00:49:37;;;;;;;7.60;3.57;;;3.80;99.90;;;;;;4212348;28;20504;-75
2024/02/01 00:51:39;;;;;;;6.33;3.50;;;3.80;99.90;;;;;;4211843;28;20251;-75
2024/02/01 00:53:41;;;;;;;5.67;3.50;;;3.80;99.90;;;;;;4212056;28;20472;-74
2024/02/01 00:55:44;;;;;;;6.60;3.60;;;3.80;99.90;;;;;;4201430;28;20473;-74
2024/02/01 00:57:46;;;;;;;5.23;3.60;;;3.80;99.90;;;;;;4212885;28;20447;-75
2024/02/01 00:59:50;;;;;;;6.23;3.40;;;3.80;99.90;;;;;;4202662;28;20466;-75
2024/02/01 01:01:51;;;;;;;5.50;3.43;;;3.90;99.90;;;;;;4211708;28;20484;-75
2024/02/01 01:03:54;;;;;;;6.90;3.53;;;3.90;99.90;;;;;;4212842;28;21045;-75
2024/02/01 01:05:56;;;;;;;5.53;3.23;;;3.90;99.90;;;;;;4193670;28;20440;-75
2024/02/01 01:07:57;;;;;;;6.57;3.73;;;3.90;99.90;;;;;;4206849;28;20543;-75
2024/02/01 01:10:01;;;;;;;7.27;3.33;;;3.90;99.90;;;;;;4197854;28;20472;-74
2024/02/01 01:12:06;;;;;;;6.90;3.80;;;3.90;99.90;;;;;;4213707;28;20537;-74
2024/02/01 01:14:08;;;;;;;6.20;3.63;;;3.90;99.90;;;;;;4213277;28;20435;-75
2024/02/01 01:16:11;;;;;;;7.50;3.60;;;3.90;99.90;;;;;;4210435;28;20499;-74
2024/02/01 01:18:13;;;;;;;9.00;4.20;;;3.90;99.90;;;;;;4212572;28;20457;-75
2024/02/01 01:20:18;;;;;;;5.77;3.80;;;4.00;99.90;;;;;;4213450;28;20475;-75
2024/02/01 01:22:23;;;;;;;5.33;3.30;;;3.90;99.90;;;;;;4212710;28;20436;-75
2024/02/01 01:24:24;;;;;;;7.57;3.70;;;3.90;99.90;;;;;;4194778;28;20454;-74
2024/02/01 01:26:26;;;;;;;8.80;4.13;;;4.00;99.90;;;;;;4213161;28;20526;-75
2024/02/01 01:28:27;;;;;;;5.43;3.27;;;4.00;99.90;;;;;;4210842;28;20455;-75
2024/02/01 01:30:29;;;;;;;6.73;3.17;;;4.00;99.90;;;;;;4212641;28;20468;-75
2024/02/01 01:32:33;;;;;;;7.67;3.60;;;4.10;99.90;;;;;;4213122;28;20214;-76
2024/02/01 01:34:38;;;;;;;7.10;3.83;;;4.20;99.90;;;;;;4197740;28;20452;-75
2024/02/01 01:36:40;;;;;;;6.70;3.57;;;4.20;99.90;;;;;;4209111;28;20461;-77
2024/02/01 01:38:41;;;;;;;4.87;2.87;;;4.20;99.90;;;;;;4211846;28;20451;-74
2024/02/01 01:40:43;;;;;;;10.67;3.07;;;4.30;99.90;;;;;;4210589;28;20451;-75
2024/02/01 01:42:46;;;;;;;5.40;2.63;;;4.30;99.90;;;;;;4203790;28;21068;-76
2024/02/01 01:44:49;;;;;;;4.00;2.60;;;4.40;99.90;;;;;;4208686;28;21023;-75
2024/02/01 01:46:51;;;;;;;4.00;2.30;;;4.50;99.90;;;;;;4207212;28;20497;-74
2024/02/01 01:48:55;;;;;;;4.07;2.13;;;4.50;99.90;;;;;;4212565;28;20492;-75
2024/02/01 01:50:57;;;;;;;5.90;2.60;;;4.50;99.90;;;;;;4210974;28;20548;-75
2024/02/01 01:53:00;;;;;;;3.77;2.20;;;4.60;99.90;;;;;;4211941;28;20535;-75
2024/02/01 01:55:02;;;;;;;5.57;2.40;;;4.60;99.90;;;;;;4210639;28;20801;-76
2024/02/01 01:57:07;;;;;;;4.30;2.10;;;4.70;99.90;;;;;;4213014;28;20539;-77
2024/02/01 01:59:12;;;;;;;4.23;2.23;;;4.70;99.90;;;;;;4206166;28;20489;-77
2024/02/01 02:01:14;;;;;;;8.00;2.20;;;4.70;99.90;;;;;;4208551;28;20540;-77
2024/02/01 02:03:15;;;;;;;4.30;2.10;;;4.80;99.90;;;;;;4208089;28;20476;-77
2024/02/01 02:05:21;;;;;;;5.17;2.33;;;4.80;99.90;;;;;;4208507;28;20562;-77
2024/02/01 02:07:22;;;;;;;2.93;1.87;;;4.80;99.90;;;;;;4205916;28;20859;-75
2024/02/01 02:09:29;;;;;;;3.60;1.97;;;4.90;99.90;;;;;;4211016;28;20510;-75
2024/02/01 02:11:30;;;;;;;4.47;2.40;;;4.90;99.90;;;;;;4211439;28;20239;-74
2024/02/01 02:13:34;;;;;;;4.10;2.23;;;4.90;99.90;;;;;;4212332;28;20489;-74
2024/02/01 02:15:35;;;;;;;5.60;2.10;;;4.90;99.90;;;;;;4210942;28;20200;-74
2024/02/01 02:17:38;;;;;;;4.63;2.37;;;5.00;99.90;;;;;;4209194;28;20520;-74
2024/02/01 02:19:38;;;;;;;6.27;2.10;;;5.00;99.90;;;;;;4210548;28;20624;-74
2024/02/01 02:21:46;;;;;;;4.87;2.40;;;5.00;99.90;;;;;;4209930;28;20445;-74
2024/02/01 02:23:51;;;;;;;4.80;2.23;;;5.00;99.90;;;;;;4213648;28;20231;-75
2024/02/01 02:25:53;;;;;;;3.93;2.27;;;5.10;99.90;;;;;;4213663;28;20461;-75
2024/02/01 02:27:55;;;;;;;6.17;2.30;;;5.10;99.90;;;;;;4211322;28;20212;-74
2024/02/01 02:29:56;;;;;;;4.83;1.90;;;5.10;99.90;;;;;;4194210;28;20475;-75
2024/02/01 02:32:01;;;;;;;3.47;2.30;;;5.20;99.90;;;;;;4198728;28;20450;-75
2024/02/01 02:34:03;;;;;;;4.67;2.33;;;5.20;99.90;;;;;;4208278;28;20497;-74
2024/02/01 02:36:09;;;;;;;3.37;2.10;;;5.20;99.90;;;;;;4214262;28;20468;-75
2024/02/01 02:38:17;;;;;;;3.30;1.83;;;5.20;99.90;;;;;;4211735;28;20997;-75
2024/02/01 02:40:20;;;;;;;5.03;2.63;;;5.20;99.90;;;;;;4210873;28;20485;-74
2024/02/01 02:42:22;;;;;;;3.60;2.47;;;5.30;99.90;;;;;;4212482;28;20457;-74
2024/02/01 02:44:24;;;;;;;4.83;2.20;;;5.30;99.90;;;;;;4213465;28;20537;-75
2024/02/01 02:46:27;;;;;;;6.87;2.53;;;5.30;99.90;;;;;;4208143;28;20458;-75
2024/02/01 02:48:29;;;;;;;4.07;2.10;;;5.30;99.90;;;;;;4207924;28;20512;-75
2024/02/01 02:50:31;;;;;;;3.10;2.10;;;5.40;99.90;;;;;;4193901;28;20991;-75
2024/02/01 02:52:34;;;;;;;4.20;2.20;;;5.30;99.90;;;;;;4211417;28;20451;-74
2024/02/01 02:54:39;;;;;;;3.33;2.43;;;5.30;99.90;;;;;;4205081;28;20923;-74
2024/02/01 02:56:41;;;;;;;3.53;2.30;;;5.40;99.90;;;;;;4210389;28;20448;-74
2024/02/01 02:58:42;;;;;;;4.00;2.30;;;5.40;99.90;;;;;;4214378;28;20484;-75
2024/02/01 03:00:46;;;;;;;5.43;2.47;;;5.40;99.90;;;;;;4211288;28;20434;-75
2024/02/01 03:02:48;;;;;;;4.17;2.40;;;5.40;99.90;;;;;;4213663;28;20469;-74
2024/02/01 03:04:50;;;;;;;5.20;3.30;;;5.40;99.90;;;;;;4193414;28;20505;-75
2024/02/01 03:06:52;;;;;;;5.23;2.90;;;5.30;99.90;;;;;;4211806;28;20875;-74
2024/02/01 03:08:54;;;;;;;15.23;3.30;;;5.30;99.90;;;;;;4211776;28;20484;-74
2024/02/01 03:10:57;;;;;;;5.53;2.60;;;5.20;99.90;;;;;;4206408;28;20519;-74
2024/02/01 03:12:59;;;;;;;9.83;3.20;;;5.10;99.90;;;;;;4205523;28;21089;-74
2024/02/01 03:15:01;;;;;;;6.87;3.30;;;5.00;99.90;;;;;;4205464;28;20842;-74
2024/02/01 03:17:03;;;;;;;5.67;3.27;;;4.90;99.90;;;;;;4211450;28;20490;-74
2024/02/01 03:19:06;;;;;;;5.90;3.43;;;4.90;99.90;;;;;;4212557;28;20535;-75
2024/02/01 03:21:09;;;;;;;5.87;3.53;;;4.80;99.90;;;;;;4210734;28;20442;-75
2024/02/01 03:23:11;;;;;;;7.77;3.43;;;4.80;99.90;;;;;;4210158;28;21146;-75
2024/02/01 03:25:13;;;;;;;11.27;3.30;;;4.70;99.90;;;;;;4210574;28;20458;-75
2024/02/01 03:27:16;;;;;;;8.97;4.20;;;4.70;99.90;;;;;;4210965;28;20833;-75
2024/02/01 03:29:18;;;;;;;8.03;3.83;;;4.70;99.90;;;;;;4210465;28;21172;-75
2024/02/01 03:31:20;;;;;;;6.80;4.03;;;4.70;99.90;;;;;;4210636;28;20513;-75
2024/02/01 03:33:22;;;;;;;9.33;3.93;;;4.60;99.90;;;;;;4216001;28;20448;-74
2024/02/01 03:35:24;;;;;;;8.90;4.37;;;4.60;99.90;;;;;;4192717;28;20544;-74
2024/02/01 03:37:27;;;;;;;7.37;4.50;;;4.60;99.90;;;;;;4211247;28;20480;-74
2024/02/01 03:39:30;;;;;;;9.83;4.57;;;4.60;99.90;;;;;;4193427;28;20462;-74
2024/02/01 03:41:31;;;;;;;9.77;4.73;;;4.60;99.90;;;;;;4210884;28;20977;-74
2024/02/01 03:43:35;;;;;;;10.53;5.13;;;4.60;99.90;;;;;;4209758;28;20512;-73
2024/02/01 03:45:37;;;;;;;11.17;5.40;;;4.50;99.90;;;;;;4203460;28;20441;-75
2024/02/01 03:47:39;;;;;;;12.77;5.40;;;4.50;99.90;;;;;;4205338;28;20493;-75
2024/02/01 03:49:41;;;;;;;15.10;5.83;;;4.50;99.90;;;;;;4213198;28;20480;-74
2024/02/01 03:51:43;;;;;;;12.97;5.73;;;4.60;99.90;;;;;;4209778;28;20454;-73
2024/02/01 03:53:45;;;;;;;18.50;5.63;;;4.50;99.90;;;;;;4214001;28;20960;-73
2024/02/01 03:55:48;;;;;;;10.33;5.57;;;4.50;99.90;;;;;;4213452;28;20451;-73
2024/02/01 03:57:50;;;;;;;11.27;5.97;;;4.50;99.90;;;;;;4216105;28;20555;-74
2024/02/01 03:59:53;;;;;;;12.40;5.70;;;4.50;99.90;;;;;;4215063;28;21014;-72
2024/02/01 04:01:55;;;;;;;11.33;5.60;;;4.50;99.90;;;;;;4212064;28;20505;-73
2024/02/01 04:03:57;;;;;;;12.87;6.07;;;4.50;99.90;;;;;;4216684;28;20489;-72
2024/02/01 04:06:00;;;;;;;12.90;6.37;;;4.50;99.90;;;;;;4210519;28;20500;-73
2024/02/01 04:08:02;;;;;;;12.07;6.20;;;4.50;99.90;;;;;;4210730;28;20853;-74
2024/02/01 04:10:07;;;;;;;16.80;6.13;;;4.50;99.90;;;;;;4201998;28;20460;-73
2024/02/01 04:12:09;;;;;;;11.90;5.90;;;4.50;99.90;;;;;;4209796;28;20471;-75
2024/02/01 04:14:11;;;;;;;15.13;6.07;;;4.50;99.90;;;;;;4207015;28;20458;-74
2024/02/01 04:16:16;;;;;;;17.23;6.37;;;4.50;99.90;;;;;;4210537;28;20550;-73
2024/02/01 04:18:18;;;;;;;12.20;6.77;;;4.50;99.90;;;;;;4206562;28;20897;-73
2024/02/01 04:20:20;;;;;;;17.97;6.23;;;4.60;99.90;;;;;;4211991;28;20560;-75
2024/02/01 04:22:22;;;;;;;15.23;6.07;;;4.60;99.90;;;;;;4212895;28;20536;-76
2024/02/01 04:24:24;;;;;;;16.53;7.07;;;4.60;99.90;;;;;;4210347;28;20508;-76
2024/02/01 04:26:26;;;;;;;13.80;6.30;;;4.60;99.90;;;;;;4211095;28;20499;-75
2024/02/01 04:28:28;;;;;;;14.63;6.00;;;4.60;99.90;;;;;;4193667;28;20446;-75
2024/02/01 04:30:29;;;;;;;12.43;6.33;;;4.60;99.90;;;;;;4212701;28;20476;-75
2024/02/01 04:32:32;;;;;;;14.30;5.67;;;4.60;99.90;;;;;;4193682;28;20564;-75
2024/02/01 04:34:35;;;;;;;12.07;5.60;;;4.60;99.90;;;;;;4213239;28;20199;-75
2024/02/01 04:36:37;;;;;;;12.20;6.00;;;4.60;99.90;;;;;;4211304;28;20475;-76
2024/02/01 04:38:41;;;;;;;12.87;6.30;;;4.60;99.90;;;;;;4211280;28;20441;-75
2024/02/01 04:40:44;;;;;;;14.03;6.17;;;4.70;99.90;;;;;;4212284;28;20709;-75
2024/02/01 04:42:51;;;;;;;10.27;5.90;;;4.70;99.90;;;;;;4210322;28;20454;-76
2024/02/01 04:44:57;;;;;;;11.70;5.73;;;4.70;99.90;;;;;;4210449;28;20515;-77
2024/02/01 04:46:59;;;;;;;10.73;6.43;;;4.70;99.90;;;;;;4210031;28;20447;-76
2024/02/01 04:49:11;;;;;;;14.67;5.87;;;4.70;99.90;;;;;;4212679;28;20472;-77
2024/02/01 04:51:13;;;;;;;13.07;5.90;;;5.20;99.90;;;;;;4214821;28;20449;-79
2024/02/01 04:53:15;;;;;;;15.53;6.70;;;4.70;99.90;;;;;;4216041;28;20460;-77
2024/02/01 04:55:17;;;;;;;15.63;6.33;;;4.70;99.90;;;;;;4211500;28;20476;-78
2024/02/01 04:57:21;;;;;;;17.37;6.67;;;4.70;99.90;;;;;;4217884;28;20535;-78
2024/02/01 04:59:23;;;;;;;14.80;6.40;;;4.80;99.90;;;;;;4219822;28;20472;-78
2024/02/01 05:01:26;;;;;;;15.60;6.70;;;4.70;99.90;;;;;;4210854;28;20548;-78
2024/02/01 05:03:27;;;;;;;17.13;7.40;;;4.80;99.90;;;;;;4208278;28;20461;-78
2024/02/01 05:05:45;;;;;;;15.77;6.40;;;4.80;99.90;;;;;;4211152;28;20488;-78
2024/02/01 05:07:47;;;;;;;12.10;6.53;;;4.80;99.90;;;;;;4213196;28;20445;-79
2024/02/01 05:09:48;;;;;;;12.10;6.50;;;4.80;99.90;;;;;;4213798;28;20469;-79
2024/02/01 05:11:50;;;;;;;13.87;6.57;;;4.80;99.90;;;;;;4196946;28;21007;-78
2024/02/01 05:13:52;;;;;;;14.83;6.37;;;4.80;99.90;;;;;;4209090;28;20273;-79
2024/02/01 05:15:54;;;;;;;14.63;6.67;;;4.80;99.90;;;;;;4194376;28;20478;-78
2024/02/01 05:17:58;;;;;;;18.27;6.77;;;4.90;99.90;;;;;;4212013;28;20458;-78
2024/02/01 05:20:00;;;;;;;12.97;6.03;;;5.10;99.90;;;;;;4211520;28;21249;-78
2024/02/01 05:22:07;;;;;;;17.87;7.30;;;4.90;99.90;;;;;;4193213;28;20494;-79
2024/02/01 05:24:13;;;;;;;14.87;6.87;;;4.90;99.90;;;;;;4207713;28;20473;-79
2024/02/01 05:26:15;;;;;;;16.30;7.07;;;4.90;99.90;;;;;;4211818;28;20997;-79
2024/02/01 05:28:18;;;;;;;14.20;7.03;;;4.90;99.90;;;;;;4211684;28;20559;-78
2024/02/01 05:30:20;;;;;;;16.83;6.67;;;4.90;99.90;;;;;;4195938;28;20473;-78
2024/02/01 05:32:21;;;;;;;12.53;6.03;;;5.00;99.90;;;;;;4213896;28;20441;-78
2024/02/01 05:34:23;;;;;;;12.87;6.47;;;5.00;99.90;;;;;;4197072;28;20481;-78
2024/02/01 05:36:25;;;;;;;11.90;6.27;;;5.00;99.90;;;;;;4210424;28;21017;-78
2024/02/01 05:38:30;;;;;;;12.33;6.20;;;5.00;99.90;;;;;;4209747;28;20960;-78
2024/02/01 05:40:33;;;;;;;12.60;6.10;;;5.00;99.90;;;;;;4210426;28;20820;-78
2024/02/01 05:42:34;;;;;;;12.80;6.63;;;5.00;99.90;;;;;;4207525;28;20983;-78
2024/02/01 05:44:36;;;;;;;9.87;5.40;;;5.00;99.90;;;;;;4212453;28;20486;-79
2024/02/01 05:46:37;;;;;;;13.80;6.50;;;5.00;99.90;;;;;;4221673;28;20200;-79
2024/02/01 05:48:42;;;;;;;11.40;5.80;;;5.10;99.90;;;;;;4221119;28;20470;-79
2024/02/01 05:50:44;;;;;;;13.87;6.70;;;5.10;99.90;;;;;;4220843;28;20292;-79
2024/02/01 05:52:46;;;;;;;12.17;5.83;;;5.10;99.90;;;;;;4215523;28;20488;-79
2024/02/01 05:54:49;;;;;;;16.70;6.50;;;5.10;99.90;;;;;;4212290;28;20450;-78
2024/02/01 05:56:51;;;;;;;10.73;5.67;;;5.10;99.90;;;;;;4193911;28;21229;-79
2024/02/01 05:58:53;;;;;;;15.77;6.53;;;5.10;99.90;;;;;;4212850;28;20449;-79
2024/02/01 06:00:57;;;;;;;11.83;6.60;;;5.10;99.90;;;;;;4209283;28;20537;-79
2024/02/01 06:03:02;;;;;;;10.00;5.57;;;5.10;99.90;;;;;;4210465;28;20906;-79
2024/02/01 06:05:03;;;;;;;18.87;6.97;;;5.10;99.90;;;;;;4211609;28;20498;-80
2024/02/01 06:07:05;;;;;;;12.30;6.23;;;5.20;99.90;;;;;;4187208;28;20489;-78
2024/02/01 06:09:10;;;;;;;15.60;7.07;;;5.20;99.90;;;;;;4203825;28;21247;-78
2024/02/01 06:11:13;;;;;;;11.37;6.40;;;5.20;99.90;;;;;;4203248;28;20547;-78
2024/02/01 06:13:15;;;;;;;12.23;7.20;;;5.20;99.90;;;;;;4196231;28;20480;-79
2024/02/01 06:15:16;;;;;;;12.23;6.70;;;5.20;99.90;;;;;;4184944;28;20507;-83
2024/02/01 06:17:18;;;;;;;15.43;8.13;;;5.20;99.90;;;;;;4206626;28;20461;-78
2024/02/01 06:19:20;;;;;;;12.33;7.00;;;5.20;99.90;;;;;;4209981;28;20577;-84
2024/02/01 06:21:22;;;;;;;14.27;7.93;;;5.50;99.90;;;;;;4206802;28;20585;-83
2024/02/01 06:23:23;;;;;;;18.80;7.97;;;5.30;99.90;;;;;;4194544;28;20463;-75
2024/02/01 06:25:27;;;;;;;13.93;7.53;;;5.30;99.90;;;;;;4208331;28;20516;-80
2024/02/01 06:27:30;;;;;;;14.27;7.47;;;5.30;99.90;;;;;;4212646;28;20676;-80
2024/02/01 06:29:32;;;;;;;18.60;7.90;;;5.30;99.90;;;;;;4202540;28;21046;-78
2024/02/01 06:31:37;;;;;;;22.10;8.67;;;5.30;99.90;;;;;;4212590;28;20568;-78
2024/02/01 06:33:39;;;;;;;17.97;9.40;;;5.30;99.90;;;;;;4191631;28;20471;-78
2024/02/01 06:35:42;;;;;;;21.93;9.97;;;5.30;99.90;;;;;;4205064;28;20474;-78
2024/02/01 06:37:52;;;;;;;22.13;10.57;;;5.30;99.90;;;;;;4217198;28;20450;-79
2024/02/01 06:40:10;;;;;;;20.97;10.10;;;5.30;99.90;;;;;;4215888;28;20552;-78
2024/02/01 06:42:17;;;;;;;17.40;9.60;;;5.30;99.90;;;;;;4209684;28;20454;-79
2024/02/01 06:44:25;;;;;;;21.67;10.37;;;5.30;99.90;;;;;;4210465;28;20503;-78
2024/02/01 06:46:49;;;;;;;17.63;9.80;;;5.30;99.90;;;;;;4219832;28;20800;-79
2024/02/01 06:49:11;;;;;;;21.47;10.33;;;5.40;99.90;;;;;;4195805;28;20531;-78
2024/02/01 06:51:21;;;;;;;24.37;11.33;;;5.40;99.90;;;;;;4198415;28;20450;-79
2024/02/01 06:53:23;;;;;;;23.13;11.33;;;5.40;99.90;;;;;;4214380;28;20957;-79
2024/02/01 06:55:36;;;;;;;20.93;11.43;;;5.40;99.90;;;;;;4211460;28;20465;-78
2024/02/01 06:57:47;;;;;;;18.47;9.20;;;5.50;99.90;;;;;;4214462;28;20522;-79
2024/02/01 07:00:16;;;;;;;19.77;9.07;;;5.50;99.90;;;;;;4218591;28;20490;-79
2024/02/01 07:02:24;;;;;;;15.93;9.00;;;5.40;99.90;;;;;;4210913;28;20860;-79
2024/02/01 07:04:41;;;;;;;18.93;8.80;;;5.50;99.90;;;;;;4214826;28;20446;-79
2024/02/01 07:07:04;;;;;;;13.93;8.10;;;5.60;99.90;;;;;;4193310;28;20485;-80
2024/02/01 07:09:27;;;;;;;14.13;7.63;;;5.50;99.90;;;;;;4205884;28;20483;-78
2024/02/01 07:11:30;;;;;;;14.90;8.20;;;5.50;99.90;;;;;;4213809;28;21086;-79
2024/02/01 07:13:45;;;;;;;16.17;7.90;;;5.50;99.90;;;;;;4214430;28;20890;-79
2024/02/01 07:15:52;;;;;;;13.40;7.70;;;5.60;99.90;;;;;;4212254;28;20442;-79
2024/02/01 07:17:59;;;;;;;13.87;7.37;;;5.60;99.90;;;;;;4210334;28;20441;-79
2024/02/01 07:20:14;;;;;;;14.87;7.57;;;5.50;99.90;;;;;;4211301;28;20461;-79
2024/02/01 07:22:34;;;;;;;16.30;7.10;;;5.60;99.90;;;;;;4211601;28;20474;-79
2024/02/01 07:24:46;;;;;;;12.57;6.30;;;5.60;99.90;;;;;;4212520;28;21018;-78
2024/02/01 07:57:35;;;;;;;17.37;7.73;;;5.60;99.90;;;;;;4208672;28;20891;-79
2024/02/01 07:57:50;;;;;;;10.60;6.27;;;5.80;99.90;;;;;;4189047;28;20456;-77
2024/02/01 07:59:57;;;;;;;11.80;6.97;;;5.80;99.90;;;;;;4209075;28;20462;-77
2024/02/01 08:02:13;;;;;;;13.30;6.40;;;5.80;99.90;;;;;;4192828;28;20450;-77
2024/02/01 08:04:17;;;;;;;11.67;6.37;;;5.80;99.90;;;;;;4210287;28;20545;-77
2024/02/01 08:08:37;;;;;;;13.23;6.07;;;5.90;99.90;;;;;;4210425;28;20441;-76
2024/02/01 08:10:39;;;;;;;13.00;6.50;;;5.90;99.90;;;;;;4206562;28;20455;-77
2024/02/01 08:12:44;;;;;;;12.00;6.90;;;5.90;99.90;;;;;;4193120;28;20468;-78
2024/02/01 08:14:51;;;;;;;15.57;6.87;;;5.90;99.90;;;;;;4209822;28;20533;-77
2024/02/01 08:16:53;;;;;;;11.00;6.07;;;5.90;99.90;;;;;;4210936;28;20448;-78
2024/02/01 08:18:55;;;;;;;11.00;6.00;;;5.90;99.90;;;;;;4218012;28;21068;-79
2024/02/01 08:20:58;;;;;;;10.63;5.90;;;6.00;99.90;;;;;;4192689;28;20455;-79
2024/02/01 08:23:04;;;;;;;14.67;6.60;;;6.00;99.90;;;;;;4215680;28;20438;-77
2024/02/01 08:25:10;;;;;;;9.93;5.77;;;6.00;99.90;;;;;;4184145;28;20480;-77
2024/02/01 08:27:14;;;;;;;11.63;6.30;;;6.00;99.90;;;;;;4212159;28;21109;-77
2024/02/01 08:29:21;;;;;;;16.43;7.03;;;6.00;99.90;;;;;;4201515;28;20474;-77
2024/02/01 08:31:24;;;;;;;12.03;6.47;;;6.10;99.90;;;;;;4195887;28;20462;-78
2024/02/01 08:33:28;;;;;;;12.53;5.57;;;6.10;99.90;;;;;;4210067;28;20466;-78
2024/02/01 08:35:37;;;;;;;11.67;6.50;;;6.70;99.90;;;;;;4208371;28;20429;-78
2024/02/01 08:37:42;;;;;;;10.43;5.87;;;6.10;99.90;;;;;;4214484;28;20446;-78
2024/02/01 08:39:45;;;;;;;11.90;6.13;;;6.20;99.90;;;;;;4203838;28;20543;-78
2024/02/01 08:44:39;;;;;;;13.50;5.80;;;6.30;99.90;;;;;;4214532;28;20201;-79
2024/02/01 08:46:44;;;;;;;12.83;5.90;;;6.30;99.90;;;;;;4204451;28;20274;-77
2024/02/01 08:48:46;;;;;;;9.80;5.67;;;6.30;99.90;;;;;;4202538;28;20466;-77
2024/02/01 08:50:49;;;;;;;11.67;6.07;;;6.40;99.90;;;;;;4192803;28;20506;-78
2024/02/01 08:52:55;;;;;;;14.27;5.73;;;6.40;99.90;;;;;;4211928;28;20446;-79
2024/02/01 08:54:57;;;;;;;11.17;5.43;;;6.50;99.90;;;;;;4195753;28;20456;-79
2024/02/01 08:56:59;;;;;;;12.87;5.47;;;6.40;99.90;;;;;;4210541;28;20309;-79
2024/02/01 08:59:05;;;;;;;9.47;5.50;;;6.40;99.90;;;;;;4197475;28;20470;-79
2024/02/01 09:01:20;;;;;;;10.50;5.43;;;6.50;99.90;;;;;;4196865;28;20444;-79
2024/02/01 09:03:29;;;;;;;8.90;5.33;;;6.50;99.90;;;;;;4213681;28;20209;-79
2024/02/01 09:05:34;;;;;;;9.43;5.73;;;6.50;99.90;;;;;;4210579;28;20213;-79
2024/02/01 09:07:41;;;;;;;8.63;5.20;;;6.50;99.90;;;;;;4211357;28;20226;-79
2024/02/01 09:12:16;;;;;;;17.47;5.87;;;6.50;99.90;;;;;;4212513;28;20463;-78
2024/02/01 09:14:18;;;;;;;11.90;5.90;;;6.50;99.90;;;;;;4198897;28;20239;-77
2024/02/01 09:16:22;;;;;;;9.73;5.23;;;6.50;99.90;;;;;;4195331;28;20543;-77
2024/02/01 09:18:24;;;;;;;10.63;5.10;;;6.50;99.90;;;;;;4213429;28;20202;-77
2024/02/01 09:20:32;;;;;;;8.93;5.00;;;6.30;99.90;;;;;;4194338;28;20476;-78
2024/02/01 09:22:33;;;;;;;8.77;5.10;;;7.10;99.90;;;;;;4211622;28;20201;-78
2024/02/01 09:24:37;;;;;;;8.37;5.00;;;6.70;99.90;;;;;;4201587;28;20256;-78
2024/02/01 09:26:42;;;;;;;11.97;5.17;;;6.80;99.90;;;;;;4223003;28;20248;-78
2024/02/01 09:28:44;;;;;;;10.77;6.17;;;6.80;99.90;;;;;;4199174;28;20260;-77
2024/02/01 09:30:47;;;;;;;8.57;5.00;;;6.90;99.90;;;;;;4213289;28;20444;-76
2024/02/01 09:32:51;;;;;;;7.67;4.83;;;6.90;99.90;;;;;;4214020;28;20251;-75
2024/02/01 09:34:53;;;;;;;8.90;4.87;;;7.00;99.90;;;;;;4214780;28;20205;-75
2024/02/01 09:36:55;;;;;;;8.60;4.80;;;7.10;99.90;;;;;;4214745;28;20197;-75
2024/02/01 09:38:57;;;;;;;9.63;5.17;;;7.00;99.90;;;;;;4199059;28;20214;-77
2024/02/01 09:40:59;;;;;;;7.80;4.60;;;6.90;99.90;;;;;;4214486;28;20209;-74
2024/02/01 09:43:04;;;;;;;7.60;4.37;;;6.90;99.90;;;;;;4213712;28;20254;-74
2024/02/01 09:45:07;;;;;;;6.63;3.87;;;6.90;99.90;;;;;;4204392;28;20215;-76
2024/02/01 09:47:09;;;;;;;6.77;4.20;;;6.90;99.90;;;;;;4213772;28;20201;-74
2024/02/01 09:49:12;;;;;;;9.10;4.70;;;6.90;99.90;;;;;;4211490;28;20261;-74
2024/02/01 09:51:17;;;;;;;9.10;4.47;;;6.90;99.90;;;;;;4209644;28;20296;-77
2024/02/01 09:53:22;;;;;;;7.03;3.83;;;7.00;99.90;;;;;;4213224;28;20658;-74
2024/02/01 09:55:25;;;;;;;10.20;4.40;;;7.00;99.90;;;;;;4211174;28;20617;-76
2024/02/01 09:57:26;;;;;;;8.73;4.80;;;7.00;99.90;;;;;;4216561;28;20212;-77
2024/02/01 09:59:36;;;;;;;8.93;4.30;;;7.40;99.90;;;;;;4203233;28;20222;-74
2024/02/01 10:01:38;;;;;;;6.47;4.10;;;7.00;99.90;;;;;;4220949;28;20208;-75
2024/02/01 10:03:43;;;;;;;7.50;3.60;;;7.00;99.90;;;;;;4220025;28;20208;-75
2024/02/01 10:05:46;;;;;;;11.13;3.97;;;7.00;99.90;;;;;;4217505;28;20649;-74
2024/02/01 10:07:47;;;;;;;5.70;3.07;;;7.10;99.90;;;;;;4219017;28;20496;-74
2024/02/01 10:09:51;;;;;;;6.83;3.27;;;7.00;99.90;;;;;;4220157;28;20209;-73
2024/02/01 10:11:54;;;;;;;7.47;3.67;;;7.00;99.90;;;;;;4218444;28;20512;-74
2024/02/01 10:13:58;;;;;;;3.73;2.87;;;7.40;99.90;;;;;;4203174;28;20214;-74
2024/02/01 10:16:12;;;;;;;5.67;2.70;;;7.00;99.90;;;;;;4221657;28;20217;-76
2024/02/01 10:18:19;;;;;;;4.77;2.77;;;7.00;99.90;;;;;;4221629;28;20205;-75
2024/02/01 10:20:35;;;;;;;5.70;2.80;;;6.90;99.90;;;;;;4222495;28;20225;-75
2024/02/01 10:22:37;;;;;;;10.77;2.83;;;7.00;99.90;;;;;;4217714;28;20280;-78
2024/02/01 10:24:45;;;;;;;8.80;2.53;;;7.10;99.90;;;;;;4209539;28;20232;-75
2024/02/01 10:26:47;;;;;;;13.07;2.73;;;7.00;99.90;;;;;;4199592;28;20583;-74
2024/02/01 10:28:52;;;;;;;8.50;2.30;;;7.10;99.90;;;;;;4216463;28;20198;-81
2024/02/01 10:30:54;;;;;;;9.10;2.23;;;7.20;99.90;;;;;;4195252;28;20265;-78
2024/02/01 10:36:20;;;;;;;5.97;1.87;;;7.10;99.90;;;;;;4214363;28;20201;-75
2024/02/01 10:38:24;;;;;;;6.57;1.70;;;7.10;99.90;;;;;;4206493;28;20209;-78
2024/02/01 10:40:39;;;;;;;5.27;1.57;;;7.10;99.90;;;;;;4213666;28;20287;-81
2024/02/01 10:42:45;;;;;;;7.23;1.73;;;7.20;99.90;;;;;;4210227;28;20280;-77
2024/02/01 10:44:54;;;;;;;5.13;1.50;;;7.30;99.90;;;;;;4206710;28;20202;-79
2024/02/01 10:47:01;;;;;;;7.93;1.07;;;7.30;99.90;;;;;;4196079;28;20854;-80
2024/02/01 10:49:17;;;;;;;5.17;1.60;;;7.30;99.90;;;;;;4186052;28;20231;-82
2024/02/01 10:51:23;;;;;;;5.13;1.50;;;7.20;99.90;;;;;;4208914;28;20198;-81
2024/02/01 10:53:25;;;;;;;7.80;1.87;;;7.10;99.90;;;;;;4207119;28;20209;-81
2024/02/01 10:55:27;;;;;;;5.13;1.77;;;7.00;99.90;;;;;;4213972;28;20240;-82
2024/02/01 10:57:30;;;;;;;8.80;1.87;;;7.00;99.90;;;;;;4213264;28;20216;-81
2024/02/01 10:59:32;;;;;;;11.27;2.47;;;7.00;99.90;;;;;;4211593;28;20254;-81
2024/02/01 11:01:35;;;;;;;4.27;1.50;;;7.00;99.90;;;;;;4214705;28;20205;-80
2024/02/01 11:03:43;;;;;;;5.47;1.60;;;7.00;99.90;;;;;;4213019;28;20203;-82
2024/02/01 11:05:47;;;;;;;4.83;1.60;;;7.10;99.90;;;;;;4214011;28;20211;-81
2024/02/01 11:07:51;;;;;;;7.80;2.10;;;7.00;99.90;;;;;;4215107;28;20212;-81
2024/02/01 11:09:53;;;;;;;5.03;1.53;;;7.40;99.90;;;;;;4208709;28;20236;-82
2024/02/01 11:11:56;;;;;;;7.30;2.50;;;7.20;99.90;;;;;;4214966;28;20206;-81
2024/02/01 11:14:09;;;;;;;7.07;1.70;;;7.30;99.90;;;;;;4214451;28;20213;-82
2024/02/01 11:16:10;;;;;;;4.83;1.67;;;7.50;99.90;;;;;;4216232;28;20198;-82
2024/02/01 11:18:12;;;;;;;9.10;1.60;;;7.60;99.90;;;;;;4214373;28;20211;-83
2024/02/01 11:20:25;;;;;;;7.23;1.60;;;7.70;99.90;;;;;;4214661;28;20233;-81
2024/02/01 11:22:29;;;;;;;7.50;1.80;;;7.80;99.90;;;;;;4197053;28;20204;-83
2024/02/01 11:24:37;;;;;;;8.47;1.47;;;7.70;99.90;;;;;;4216941;28;20214;-82
2024/02/01 11:26:40;;;;;;;6.40;1.30;;;7.70;99.90;;;;;;4217978;28;20260;-80
2024/02/01 11:28:42;;;;;;;7.53;1.30;;;7.70;99.90;;;;;;4204661;28;20274;-81
2024/02/01 11:30:56;;;;;;;9.07;1.90;;;7.70;99.90;;;;;;4219506;28;20202;-81